Forside
METAR-TAF:

METAR-TAF

Lufthavne :

Hakodate, Japan

Breddekreds: 41-46N, længdekreds: 140-49E, højde: 33 m

Aktuelle vejr

Denne rapport blev lavet for 2 timer og 16 minutter siden, kl. 11:00 UTC
Vind 6 kt fra østnordøst
Temperatur 6°C
Fugtighed 81%
Tryk 1019 hPa
Sigt 10 km eller mere
Nogle få skyer i en højde af 1500 ft
Spredte skyer

METAR: RJCH 311100Z 06006KT 9999 FEW015 SCT/// 06/03 Q1019

Tid: 22:16 (13:16 UTC)

Vejrudsigter

Denne rapport blev lavet for 2 timer og 7 minutter siden, kl. 11:09 UTC
Foreløbig gælder fra 31 på 12 UTC til 01 på 18 UTC
Vind 5 kt fra nordøst
Sigt 10 km eller mere
Nogle få skyer i en højde af 3000 ft
ændring
fra 01 på 12 UTC til 01 på 15 UTC
Vind 6 kt fra nord

TAF: RJCH 311109Z 3112/0118 05005KT 9999 FEW030 BECMG 0112/0115 35006KT

Vejrobservationer og prognoser fra mere end 4000 lufthavne (METAR og TAF).

De gule og røde prikker repræsenterer de meteorologiske stationer.

Flyt musen over at se navnet på stationen.

Så klik over at se vejr observationer og prognoser.

At skifte det kort: Klik på de grønne knapper med et sort kors for at zoome ind; på den grønne knap med en bindestreg for at zoome ud; eller på de grønne pile for tilstødende kort.


METAR-TAF: